Shishmaref, AK

7:50 AM AKDT on October 17, 2017 (GMT -0800)
New Shishmaref

Weather History for PASH - October, 2013

Change the Weather History Date:

Sunday, October 27, 2013

  Actual Average Record
Temperature  
Mean Temperature 36 °F -  
Max Temperature 39 °F 25 °F 39 °F (2013)
Min Temperature 33 °F 20 °F 6 °F (1997)
Degree Days  
Heating Degree Days 29    
Moisture  
Dew Point 31 °F    
Average Humidity 86    
Maximum Humidity 93    
Minimum Humidity 81    
Precipitation  
Precipitation 0.02 in - - ()
Sea Level Pressure  
Sea Level Pressure 29.66 in    
Wind  
Wind Speed 14 mph (ESE)    
Max Wind Speed 23 mph    
Max Gust Speed 17 mph    
Visibility 10 miles    
Events      
Averages and records for this station are not official NWS values.
T = Trace of Precipitation, MM = Missing Value Source: NWS Daily Summary

Daily Weather History Graph

Daily Weather History Graph

Search for Another Location

Airport or City:

Trip Planner

Search our weather history database for the weather conditions in past years. The results will help you decide how hot, cold, wet, or windy it might be!

Date:

Astronomy

Oct. 27, 2013 Rise Set
Actual Time 10:45 AM AKDT 6:49 PM AKDT
Civil Twilight 9:48 AM AKDT 7:46 PM AKDT
Nautical Twilight 8:46 AM AKDT 8:47 PM AKDT
Astronomical Twilight 7:47 AM AKDT 9:47 PM AKDT
Moon 1:12 AM AKDT (10/27) 5:31 PM AKDT (10/27)
Length of Visible Light 9h 58m
Length of Day
8h 04m
Last Quarter, 42% of the Moon is Illuminated
Oct 27
Last Quarter
Nov 3
New
Nov 9
First Quarter
Nov 17
Full
Nov 25
Last Quarter

Hourly Weather History & Observations

Time (AKDT) Temp. Windchill Dew Point Humidity Pressure Visibility Wind Dir Wind Speed Gust Speed Precip Events Conditions
12:16 AM 33.8 °F 24.3 °F 30.2 °F 87% 29.95 in 10.0 mi East 13.8 mph - N/A   Clear
12:36 AM 33.8 °F 27.0 °F 30.2 °F 87% 29.93 in 10.0 mi ENE 8.1 mph - N/A   Clear
12:56 AM 33.8 °F 24.3 °F 30.2 °F 87% 29.90 in 10.0 mi East 13.8 mph 17.3 mph N/A   Clear
1:16 AM 33.8 °F 23.5 °F 30.2 °F 87% 29.89 in 10.0 mi East 16.1 mph - N/A   Clear
1:36 AM 33.8 °F 23.9 °F 30.2 °F 87% 29.88 in 10.0 mi East 15.0 mph - N/A   Clear
1:56 AM 33.8 °F 23.2 °F 30.2 °F 87% 29.86 in 10.0 mi East 17.3 mph - N/A   Clear
2:16 AM 33.8 °F 24.3 °F 30.2 °F 87% 29.86 in 10.0 mi East 13.8 mph - N/A   Clear
2:36 AM 33.8 °F 24.3 °F 30.2 °F 87% 29.84 in 10.0 mi East 13.8 mph - N/A   Clear
2:56 AM 33.8 °F 23.9 °F 30.2 °F 87% 29.82 in 10.0 mi East 15.0 mph - N/A   Clear
3:16 AM 33.8 °F 23.5 °F 32.0 °F 93% 29.82 in 10.0 mi East 16.1 mph - N/A   Clear
3:36 AM 35.6 °F 26.6 °F 30.2 °F 81% 29.83 in 10.0 mi East 13.8 mph - N/A   Clear
3:56 AM 35.6 °F 25.9 °F 30.2 °F 81% 29.80 in 10.0 mi East 16.1 mph - N/A   Clear
4:16 AM 35.6 °F 25.9 °F 30.2 °F 81% 29.79 in 10.0 mi East 16.1 mph - N/A   Clear
4:36 AM 35.6 °F 26.2 °F 30.2 °F 81% 29.77 in 10.0 mi East 15.0 mph - N/A   Clear
4:56 AM 35.6 °F 26.6 °F 30.2 °F 81% 29.75 in 10.0 mi East 13.8 mph - N/A   Clear
5:16 AM 35.6 °F 25.2 °F 30.2 °F 81% 29.74 in 10.0 mi East 18.4 mph - N/A   Mostly Cloudy
5:36 AM 35.6 °F 26.2 °F 30.2 °F 81% 29.73 in 10.0 mi East 15.0 mph - N/A   Mostly Cloudy
5:56 AM 35.6 °F 26.6 °F 30.2 °F 81% 29.72 in 10.0 mi East 13.8 mph - N/A   Mostly Cloudy
6:16 AM 35.6 °F 26.6 °F 32.0 °F 87% 29.70 in 10.0 mi East 13.8 mph - 0.01 in   Overcast
6:36 AM 35.6 °F 25.5 °F 30.2 °F 81% 29.69 in 10.0 mi East 17.3 mph - 0.01 in   Overcast
6:56 AM 35.6 °F 24.5 °F 30.2 °F 81% 29.68 in 10.0 mi East 20.7 mph - 0.01 in   Overcast
7:16 AM 33.8 °F 21.6 °F 30.2 °F 87% 29.66 in 10.0 mi East 23.0 mph - N/A   Overcast
7:36 AM 33.8 °F 21.6 °F 30.2 °F 87% 29.65 in 10.0 mi East 23.0 mph - 0.01 in   Overcast
7:56 AM 33.8 °F 21.9 °F 30.2 °F 87% 29.65 in 10.0 mi East 21.9 mph - 0.01 in   Overcast
8:16 AM 33.8 °F 22.2 °F 30.2 °F 87% 29.63 in 10.0 mi East 20.7 mph - N/A   Partly Cloudy
8:36 AM 33.8 °F 22.2 °F 30.2 °F 87% 29.63 in 10.0 mi ESE 20.7 mph - N/A   Clear
8:56 AM 33.8 °F 21.6 °F 30.2 °F 87% 29.62 in 10.0 mi ESE 23.0 mph - N/A   Clear
9:16 AM 33.8 °F 22.5 °F 30.2 °F 87% 29.61 in 10.0 mi ESE 19.6 mph - N/A   Clear
9:36 AM 33.8 °F 23.5 °F 30.2 °F 87% 29.61 in 10.0 mi ESE 16.1 mph - N/A   Clear
9:56 AM 33.8 °F 22.8 °F 30.2 °F 87% 29.61 in 10.0 mi ESE 18.4 mph - N/A   Partly Cloudy
10:16 AM 33.8 °F 23.5 °F 30.2 °F 87% 29.60 in 10.0 mi ESE 16.1 mph - N/A   Partly Cloudy
10:36 AM 33.8 °F 24.8 °F 30.2 °F 87% 29.60 in 10.0 mi ESE 12.7 mph - N/A   Clear
10:56 AM 33.8 °F 24.3 °F 30.2 °F 87% 29.60 in 10.0 mi ESE 13.8 mph - N/A   Mostly Cloudy
11:16 AM 35.6 °F 26.2 °F 32.0 °F 87% 29.60 in 10.0 mi SE 15.0 mph - N/A   Mostly Cloudy
11:36 AM 35.6 °F 26.2 °F 32.0 °F 87% 29.60 in 10.0 mi SE 15.0 mph - N/A   Scattered Clouds
11:56 AM 35.6 °F 27.1 °F 32.0 °F 87% 29.60 in 10.0 mi ESE 12.7 mph - N/A   Mostly Cloudy
12:16 PM 35.6 °F 27.5 °F 32.0 °F 87% 29.61 in 10.0 mi SE 11.5 mph - N/A   Mostly Cloudy
12:36 PM 35.6 °F 28.0 °F 32.0 °F 87% 29.61 in 10.0 mi SE 10.4 mph - N/A   Overcast
12:56 PM 35.6 °F 27.1 °F 33.8 °F 93% 29.61 in 10.0 mi SE 12.7 mph - N/A   Overcast
1:16 PM 35.6 °F 27.1 °F 33.8 °F 93% 29.62 in 10.0 mi SE 12.7 mph - N/A   Mostly Cloudy
1:36 PM 35.6 °F 27.5 °F 33.8 °F 93% 29.62 in 10.0 mi SE 11.5 mph - N/A   Partly Cloudy
1:56 PM 35.6 °F 27.1 °F 33.8 °F 93% 29.62 in 10.0 mi SE 12.7 mph - N/A   Scattered Clouds
2:16 PM 37.4 °F 29.3 °F 33.8 °F 87% 29.62 in 10.0 mi SE 12.7 mph - N/A   Mostly Cloudy
2:56 PM 37.4 °F 28.9 °F 33.8 °F 87% 29.62 in 10.0 mi SE 13.8 mph - N/A   Clear
3:16 PM 37.4 °F 29.8 °F 33.8 °F 87% 29.62 in 10.0 mi SE 11.5 mph - N/A   Scattered Clouds
3:36 PM 37.4 °F 29.3 °F 33.8 °F 87% 29.62 in 10.0 mi SSE 12.7 mph - N/A   Overcast
3:56 PM 39.2 °F 30.8 °F 33.8 °F 81% 29.61 in 10.0 mi SSE 15.0 mph - N/A   Scattered Clouds
4:16 PM 37.4 °F 30.8 °F 32.0 °F 81% 29.61 in 10.0 mi ESE 9.2 mph - N/A   Mostly Cloudy
4:36 PM 35.6 °F 29.2 °F 33.8 °F 93% 29.61 in 10.0 mi ESE 8.1 mph - N/A   Mostly Cloudy
4:56 PM 37.4 °F 30.3 °F 33.8 °F 87% 29.61 in 10.0 mi SE 10.4 mph - N/A   Overcast
5:16 PM 37.4 °F 30.3 °F 32.0 °F 81% 29.60 in 10.0 mi ESE 10.4 mph - N/A   Overcast
5:36 PM 37.4 °F 29.3 °F 32.0 °F 81% 29.60 in 10.0 mi ESE 12.7 mph - N/A   Overcast
5:56 PM 37.4 °F 28.9 °F 32.0 °F 81% 29.60 in 10.0 mi SE 13.8 mph - N/A   Overcast
6:16 PM 37.4 °F 28.2 °F 33.8 °F 87% 29.60 in 10.0 mi SE 16.1 mph - N/A   Overcast
6:36 PM 37.4 °F 28.9 °F 32.0 °F 81% 29.59 in 10.0 mi SE 13.8 mph - N/A   Mostly Cloudy
6:56 PM 37.4 °F 29.3 °F 33.8 °F 87% 29.59 in 10.0 mi SE 12.7 mph - N/A   Mostly Cloudy
7:16 PM 35.6 °F 27.5 °F 32.0 °F 87% 29.59 in 10.0 mi ESE 11.5 mph - N/A   Overcast
7:36 PM 35.6 °F 27.5 °F 32.0 °F 87% 29.59 in 10.0 mi ESE 11.5 mph - N/A   Overcast
7:56 PM 35.6 °F 27.1 °F 32.0 °F 87% 29.58 in 10.0 mi SE 12.7 mph - N/A   Scattered Clouds
8:16 PM 35.6 °F 27.1 °F 32.0 °F 87% 29.58 in 10.0 mi SE 12.7 mph - N/A   Clear
8:36 PM 35.6 °F 27.1 °F 32.0 °F 87% 29.58 in 10.0 mi ESE 12.7 mph - N/A   Clear
8:56 PM 35.6 °F 27.1 °F 30.2 °F 81% 29.58 in 10.0 mi SE 12.7 mph - N/A   Clear
9:16 PM 35.6 °F 28.0 °F 30.2 °F 81% 29.58 in 10.0 mi ESE 10.4 mph - N/A   Clear
9:36 PM 33.8 °F 25.8 °F 30.2 °F 87% 29.58 in 10.0 mi ESE 10.4 mph - N/A   Clear
9:56 PM 33.8 °F 25.8 °F 30.2 °F 87% 29.58 in 10.0 mi ESE 10.4 mph - N/A   Clear
10:16 PM 33.8 °F 25.3 °F 30.2 °F 87% 29.58 in 10.0 mi ESE 11.5 mph - N/A   Clear
10:36 PM 35.6 °F 27.5 °F 30.2 °F 81% 29.57 in 10.0 mi ESE 11.5 mph - N/A   Clear
10:56 PM 35.6 °F 27.5 °F 30.2 °F 81% 29.57 in 10.0 mi ESE 11.5 mph - N/A   Clear
11:16 PM 35.6 °F 29.2 °F 30.2 °F 81% 29.57 in 10.0 mi SE 8.1 mph - N/A   Clear
11:36 PM 33.8 °F 30.8 °F 30.2 °F 87% 29.57 in 10.0 mi SE 3.5 mph - N/A   Clear
11:56 PM 33.8 °F 27.7 °F 30.2 °F 87% 29.56 in 10.0 mi ESE 6.9 mph - N/A   Clear